| time (UTC) | temp F | wind direction | speed knots | gust knots | rain 1hr in | rain 24hr in | rain mn in | humidity % | barometer mb |
| 20260504151035 | 66 | 360 | 1.7 | 9.6 | 0.00 | 0.00 | 0.00 | 38 | 1010.8 |
| 20260504150534 | 65 | 360 | 4.3 | 9.6 | 0.00 | 0.00 | 0.00 | 37 | 1010.9 |
| 20260504141034 | 62 | 360 | 4.3 | 12.2 | 0.00 | 0.00 | 0.00 | 41 | 1011.4 |
| 20260504140534 | 61 | 360 | 4.3 | 12.2 | 0.00 | 0.00 | 0.00 | 41 | 1011.4 |
| 20260504130536 | 58 | 148 | 1.7 | 7.0 | 0.00 | 0.00 | 0.00 | 49 | 1012.0 |
| 20260504120105 | 47 | 360 | 0.9 | 3.5 | 0.00 | 0.00 | 0.00 | 76 | 1012.3 |
| 20260504110534 | 37 | 0 | 0.0 | 0.9 | 0.00 | 0.00 | 0.00 | 84 | 1012.4 |
| 20260504100533 | 34 | 0 | 0.0 | 1.7 | 0.00 | 0.00 | 0.00 | 82 | 1012.1 |
| 20260504081544 | 36 | 0 | 0.0 | 0.9 | 0.00 | 0.00 | 0.00 | 81 | 1012.2 |
| 20260504081035 | 36 | 360 | 0.0 | 0.9 | 0.00 | 0.00 | 0.00 | 81 | 1012.1 |
| 20260504080534 | 36 | 360 | 0.0 | 0.9 | 0.00 | 0.00 | 0.00 | 81 | 1012.1 |
| 20260504050535 | 37 | 0 | 0.0 | 0.9 | 0.00 | 0.00 | 0.00 | 76 | 1011.6 |
| 20260504045534 | 37 | 0 | 0.0 | 0.0 | 0.00 | 0.00 | 0.00 | 75 | 1011.6 |
| 20260504045034 | 37 | 0 | 0.0 | 0.0 | 0.00 | 0.00 | 0.00 | 75 | 1011.5 |
| 20260504044544 | 37 | 0 | 0.0 | 0.0 | 0.00 | 0.00 | 0.00 | 75 | 1011.6 |
| 20260504044034 | 37 | 0 | 0.0 | 0.9 | 0.00 | 0.00 | 0.00 | 75 | 1011.6 |
| 20260504043534 | 37 | 0 | 0.0 | 0.9 | 0.00 | 0.00 | 0.00 | 75 | 1011.4 |
| 20260504043105 | 38 | 0 | 0.0 | 0.9 | 0.00 | 0.00 | 0.00 | 75 | 1011.5 |
| 20260504042534 | 38 | 0 | 0.0 | 0.0 | 0.00 | 0.00 | 0.00 | 75 | 1011.4 |
| 20260504042034 | 38 | 0 | 0.0 | 0.0 | 0.00 | 0.00 | 0.00 | 75 | 1011.4 |
| 20260504041540 | 38 | 0 | 0.0 | 0.0 | 0.00 | 0.00 | 0.00 | 75 | 1011.3 |
| 20260504041034 | 38 | 0 | 0.0 | 0.9 | 0.00 | 0.00 | 0.00 | 75 | 1011.4 |
| 20260504040539 | 38 | 0 | 0.0 | 0.9 | 0.00 | 0.00 | 0.00 | 75 | 1011.3 |
| 20260504040043 | 38 | 0 | 0.0 | 0.9 | 0.00 | 0.00 | 0.00 | 75 | 1011.2 |
| 20260504035535 | 39 | 0 | 0.0 | 0.9 | 0.00 | 0.00 | 0.00 | 75 | 1011.1 |
| 20260504035035 | 39 | 0 | 0.0 | 0.9 | 0.00 | 0.00 | 0.00 | 75 | 1011.2 |
| 20260504034547 | 39 | 0 | 0.0 | 0.9 | 0.00 | 0.00 | 0.00 | 75 | 1011.1 |
| 20260504034034 | 39 | 0 | 0.0 | 0.9 | 0.00 | 0.00 | 0.00 | 75 | 1011.2 |
| 20260504033534 | 39 | 0 | 0.0 | 0.9 | 0.00 | 0.00 | 0.00 | 74 | 1011.0 |
| 20260504033045 | 39 | 0 | 0.0 | 0.9 | 0.00 | 0.00 | 0.00 | 74 | 1011.2 |
| 20260504032534 | 39 | 0 | 0.0 | 0.9 | 0.00 | 0.00 | 0.00 | 74 | 1011.1 |
| 20260504032034 | 39 | 219 | 0.0 | 0.9 | 0.00 | 0.00 | 0.00 | 74 | 1011.2 |
| 20260504031551 | 40 | 0 | 0.0 | 0.9 | 0.00 | 0.00 | 0.00 | 73 | 1011.2 |
| 20260504031034 | 40 | 360 | 0.0 | 0.9 | 0.00 | 0.00 | 0.00 | 73 | 1011.1 |
| 20260504030534 | 40 | 0 | 0.0 | 0.9 | 0.00 | 0.00 | 0.00 | 73 | 1011.2 |
| 20260504030100 | 40 | 360 | 0.0 | 0.9 | 0.00 | 0.00 | 0.00 | 73 | 1011.0 |
| 20260504025534 | 40 | 360 | 0.0 | 0.9 | 0.00 | 0.00 | 0.00 | 72 | 1011.2 |
| 20260504025034 | 40 | 0 | 0.0 | 0.9 | 0.00 | 0.00 | 0.00 | 72 | 1011.1 |
| 20260504024540 | 41 | 360 | 0.0 | 0.9 | 0.00 | 0.00 | 0.00 | 71 | 1011.1 |
| 20260504024034 | 41 | 360 | 0.0 | 0.9 | 0.00 | 0.00 | 0.00 | 70 | 1011.2 |
| 20260504023534 | 41 | 0 | 0.0 | 0.9 | 0.00 | 0.00 | 0.00 | 69 | 1011.2 |
| 20260504023049 | 41 | 0 | 0.0 | 0.9 | 0.00 | 0.00 | 0.00 | 70 | 1011.2 |
| 20260504022538 | 41 | 0 | 0.0 | 0.9 | 0.00 | 0.00 | 0.00 | 69 | 1011.3 |
| 20260504022035 | 42 | 0 | 0.0 | 0.9 | 0.00 | 0.00 | 0.00 | 68 | 1011.4 |
| 20260504021548 | 42 | 0 | 0.0 | 0.9 | 0.00 | 0.00 | 0.00 | 68 | 1011.3 |
| 20260504021036 | 42 | 0 | 0.0 | 0.9 | 0.00 | 0.00 | 0.00 | 68 | 1011.3 |
| 20260504020538 | 42 | 0 | 0.0 | 0.0 | 0.00 | 0.00 | 0.00 | 66 | 1011.3 |
| 20260504020044 | 43 | 0 | 0.0 | 0.0 | 0.00 | 0.00 | 0.00 | 67 | 1011.2 |
| 20260504015534 | 43 | 0 | 0.0 | 0.0 | 0.00 | 0.00 | 0.00 | 66 | 1011.2 |
| 20260504015034 | 43 | 0 | 0.0 | 0.0 | 0.00 | 0.00 | 0.00 | 65 | 1011.1 |
| 20260504014541 | 44 | 0 | 0.0 | 0.0 | 0.00 | 0.00 | 0.00 | 65 | 1011.0 |
| 20260504014034 | 44 | 0 | 0.0 | 0.0 | 0.00 | 0.00 | 0.00 | 64 | 1011.1 |
| 20260504013535 | 44 | 0 | 0.0 | 0.0 | 0.00 | 0.00 | 0.00 | 64 | 1011.0 |
| 20260504013044 | 45 | 0 | 0.0 | 0.0 | 0.00 | 0.00 | 0.00 | 63 | 1010.9 |
| 20260504012534 | 45 | 0 | 0.0 | 0.0 | 0.00 | 0.00 | 0.00 | 61 | 1010.9 |
| 20260504012035 | 45 | 0 | 0.0 | 0.0 | 0.00 | 0.00 | 0.00 | 61 | 1011.0 |
| 20260504011541 | 46 | 0 | 0.0 | 0.0 | 0.00 | 0.00 | 0.00 | 60 | 1010.8 |
| 20260504011037 | 46 | 0 | 0.0 | 0.0 | 0.00 | 0.00 | 0.00 | 59 | 1010.9 |
| 20260504010534 | 47 | 0 | 0.0 | 0.0 | 0.00 | 0.00 | 0.00 | 59 | 1010.8 |
| 20260504010052 | 47 | 0 | 0.0 | 0.0 | 0.00 | 0.00 | 0.00 | 58 | 1010.8 |
| 20260504005534 | 48 | 0 | 0.0 | 0.0 | 0.00 | 0.00 | 0.00 | 58 | 1010.7 |
| 20260504005034 | 48 | 0 | 0.0 | 0.0 | 0.00 | 0.00 | 0.00 | 57 | 1010.7 |
| 20260504004547 | 49 | 0 | 0.0 | 0.0 | 0.00 | 0.00 | 0.00 | 56 | 1010.5 |
| 20260504004035 | 49 | 0 | 0.0 | 0.0 | 0.00 | 0.00 | 0.00 | 53 | 1010.5 |
| 20260504003534 | 50 | 0 | 0.0 | 0.0 | 0.00 | 0.00 | 0.00 | 53 | 1010.6 |
| 20260504003044 | 50 | 0 | 0.0 | 0.0 | 0.00 | 0.00 | 0.00 | 52 | 1010.5 |
| 20260504002534 | 51 | 0 | 0.0 | 0.0 | 0.00 | 0.00 | 0.00 | 51 | 1010.3 |
| 20260504002034 | 51 | 0 | 0.0 | 0.0 | 0.00 | 0.00 | 0.00 | 50 | 1010.3 |
| 20260504001542 | 51 | 0 | 0.0 | 0.0 | 0.00 | 0.00 | 0.00 | 50 | 1010.2 |
| 20260504001034 | 52 | 0 | 0.0 | 0.0 | 0.00 | 0.00 | 0.00 | 49 | 1010.1 |
| 20260504000534 | 52 | 0 | 0.0 | 0.9 | 0.00 | 0.00 | 0.00 | 48 | 1010.1 |
| 20260504000040 | 53 | 0 | 0.0 | 0.9 | 0.00 | 0.00 | 0.00 | 47 | 1010.1 |
| 20260503235533 | 53 | 0 | 0.0 | 0.9 | 0.00 | 0.00 | 0.00 | 47 | 1010.0 |
| 20260503235035 | 54 | 0 | 0.0 | 0.9 | 0.00 | 0.00 | 0.00 | 46 | 1010.1 |
| 20260503234543 | 54 | 0 | 0.0 | 0.9 | 0.00 | 0.00 | 0.00 | 45 | 1010.0 |
| 20260503234038 | 54 | 0 | 0.0 | 1.7 | 0.00 | 0.00 | 0.00 | 45 | 1010.0 |
| 20260503233534 | 55 | 0 | 0.0 | 1.7 | 0.00 | 0.00 | 0.00 | 44 | 1010.0 |
| 20260503233041 | 55 | 360 | 0.9 | 1.7 | 0.00 | 0.00 | 0.00 | 44 | 1009.9 |
| 20260503232537 | 55 | 219 | 0.0 | 4.3 | 0.00 | 0.00 | 0.00 | 42 | 1009.9 |
| 20260503232034 | 56 | 219 | 0.0 | 4.3 | 0.00 | 0.00 | 0.00 | 41 | 1009.9 |
| 20260503231548 | 56 | 360 | 1.7 | 4.3 | 0.00 | 0.00 | 0.00 | 41 | 1009.9 |
| 20260503231038 | 56 | 360 | 0.9 | 3.5 | 0.00 | 0.00 | 0.00 | 42 | 1009.8 |
| 20260503230536 | 56 | 360 | 0.0 | 3.5 | 0.00 | 0.00 | 0.00 | 40 | 1009.8 |
| 20260503230100 | 57 | 0 | 0.9 | 3.5 | 0.00 | 0.00 | 0.00 | 40 | 1009.8 |
| 20260503225534 | 57 | 360 | 0.9 | 2.6 | 0.00 | 0.00 | 0.00 | 39 | 1009.8 |
| 20260503225034 | 57 | 360 | 0.9 | 2.6 | 0.00 | 0.00 | 0.00 | 37 | 1009.8 |
| 20260503224542 | 57 | 360 | 0.9 | 7.0 | 0.00 | 0.00 | 0.00 | 39 | 1009.8 |
| 20260503224036 | 57 | 226 | 0.9 | 8.7 | 0.00 | 0.00 | 0.00 | 37 | 1009.8 |
| 20260503223534 | 57 | 0 | 2.6 | 8.7 | 0.00 | 0.00 | 0.00 | 37 | 1009.8 |
| 20260503223100 | 57 | 231 | 1.7 | 7.8 | 0.00 | 0.00 | 0.00 | 39 | 1009.8 |
| 20260503222533 | 57 | 0 | 0.9 | 3.5 | 0.00 | 0.00 | 0.00 | 37 | 1009.6 |
| 20260503222034 | 58 | 213 | 0.9 | 8.7 | 0.00 | 0.00 | 0.00 | 36 | 1009.6 |
| 20260503221548 | 58 | 161 | 1.7 | 8.7 | 0.00 | 0.00 | 0.00 | 37 | 1009.6 |
| 20260503221035 | 58 | 187 | 1.7 | 8.7 | 0.00 | 0.00 | 0.00 | 34 | 1009.5 |
| 20260503220535 | 58 | 360 | 1.7 | 3.5 | 0.00 | 0.00 | 0.00 | 36 | 1009.3 |
| 20260503220042 | 58 | 0 | 0.0 | 3.5 | 0.00 | 0.00 | 0.00 | 37 | 1009.4 |
| 20260503215534 | 58 | 360 | 0.9 | 4.3 | 0.00 | 0.00 | 0.00 | 35 | 1009.4 |
| 20260503215034 | 58 | 360 | 0.9 | 4.3 | 0.00 | 0.00 | 0.00 | 34 | 1009.3 |
| 20260503214552 | 58 | 360 | 0.9 | 7.0 | 0.00 | 0.00 | 0.00 | 35 | 1009.2 |
| 20260503214034 | 58 | 360 | 0.9 | 7.0 | 0.00 | 0.00 | 0.00 | 38 | 1009.3 |
| 20260503213534 | 58 | 360 | 1.7 | 7.0 | 0.00 | 0.00 | 0.00 | 35 | 1009.3 |
| 20260503213046 | 58 | 360 | 0.9 | 6.1 | 0.00 | 0.00 | 0.00 | 33 | 1009.3 |
| 20260503212535 | 58 | 360 | 1.7 | 6.1 | 0.00 | 0.00 | 0.00 | 34 | 1009.3 |
| 20260503212034 | 58 | 265 | 1.7 | 7.0 | 0.00 | 0.00 | 0.00 | 35 | 1009.2 |
| 20260503211543 | 58 | 239 | 2.6 | 7.0 | 0.00 | 0.00 | 0.00 | 33 | 1009.1 |
| 20260503211034 | 58 | 213 | 1.7 | 7.0 | 0.00 | 0.00 | 0.00 | 33 | 1009.2 |
| 20260503210535 | 58 | 211 | 1.7 | 7.0 | 0.00 | 0.00 | 0.00 | 34 | 1009.2 |
| 20260503210042 | 59 | 154 | 1.7 | 8.7 | 0.00 | 0.00 | 0.00 | 33 | 1009.3 |
| 20260503205534 | 59 | 360 | 2.6 | 8.7 | 0.00 | 0.00 | 0.00 | 34 | 1009.3 |
| 20260503205036 | 59 | 360 | 1.7 | 8.7 | 0.00 | 0.00 | 0.00 | 31 | 1009.3 |
| 20260503204544 | 59 | 360 | 1.7 | 5.2 | 0.00 | 0.00 | 0.00 | 34 | 1009.4 |
| 20260503204034 | 59 | 360 | 1.7 | 5.2 | 0.00 | 0.00 | 0.00 | 32 | 1009.6 |
| 20260503203534 | 59 | 360 | 0.9 | 8.7 | 0.00 | 0.00 | 0.00 | 31 | 1009.5 |
| 20260503203038 | 59 | 360 | 2.6 | 8.7 | 0.00 | 0.00 | 0.00 | 32 | 1009.6 |
| 20260503202535 | 59 | 360 | 1.7 | 8.7 | 0.00 | 0.00 | 0.00 | 33 | 1009.5 |
| 20260503202036 | 59 | 360 | 1.7 | 7.8 | 0.00 | 0.00 | 0.00 | 35 | 1009.6 |
| 20260503201545 | 59 | 360 | 1.7 | 13.9 | 0.00 | 0.00 | 0.00 | 31 | 1009.5 |
| 20260503201053 | 60 | 360 | 3.5 | 13.9 | 0.00 | 0.00 | 0.00 | 31 | 1009.6 |
| 20260503200534 | 60 | 360 | 2.6 | 7.0 | 0.00 | 0.00 | 0.00 | 33 | 1009.4 |
| 20260503200044 | 60 | 360 | 0.9 | 4.3 | 0.00 | 0.00 | 0.00 | 34 | 1009.6 |
| 20260503195535 | 60 | 360 | 1.7 | 11.3 | 0.00 | 0.00 | 0.00 | 30 | 1009.6 |
| 20260503195034 | 59 | 360 | 1.7 | 11.3 | 0.00 | 0.00 | 0.00 | 37 | 1009.6 |
| 20260503194557 | 59 | 360 | 2.6 | 11.3 | 0.00 | 0.00 | 0.00 | 32 | 1009.8 |
| 20260503194034 | 59 | 360 | 0.9 | 7.8 | 0.00 | 0.00 | 0.00 | 30 | 1009.7 |
| 20260503193534 | 60 | 360 | 2.6 | 7.8 | 0.00 | 0.00 | 0.00 | 33 | 1009.8 |
| 20260503193044 | 60 | 360 | 1.7 | 5.2 | 0.00 | 0.00 | 0.00 | 31 | 1010.0 |
| 20260503192534 | 60 | 360 | 1.7 | 7.0 | 0.00 | 0.00 | 0.00 | 37 | 1009.9 |
| 20260503192034 | 59 | 360 | 1.7 | 7.0 | 0.00 | 0.00 | 0.00 | 34 | 1009.9 |
| 20260503191542 | 59 | 360 | 1.7 | 7.0 | 0.00 | 0.00 | 0.00 | 37 | 1010.0 |
| 20260503191035 | 59 | 360 | 0.9 | 9.6 | 0.00 | 0.00 | 0.00 | 33 | 1009.9 |
| 20260503190538 | 58 | 360 | 2.6 | 9.6 | 0.00 | 0.00 | 0.00 | 38 | 1010.1 |
| 20260503190043 | 59 | 360 | 1.7 | 9.6 | 0.00 | 0.00 | 0.00 | 33 | 1010.2 |
| 20260503185534 | 60 | 360 | 1.7 | 7.8 | 0.00 | 0.00 | 0.00 | 36 | 1010.3 |
| 20260503185035 | 58 | 360 | 1.7 | 7.0 | 0.00 | 0.00 | 0.00 | 38 | 1010.3 |
| 20260503184543 | 57 | 360 | 2.6 | 7.8 | 0.00 | 0.00 | 0.00 | 33 | 1010.4 |
| 20260503184035 | 58 | 360 | 1.7 | 7.8 | 0.00 | 0.00 | 0.00 | 32 | 1010.4 |
| 20260503183535 | 57 | 240 | 1.7 | 8.7 | 0.00 | 0.00 | 0.00 | 36 | 1010.4 |
| 20260503183053 | 57 | 220 | 1.7 | 8.7 | 0.00 | 0.00 | 0.00 | 34 | 1010.3 |
| 20260503182534 | 57 | 270 | 1.7 | 8.7 | 0.00 | 0.00 | 0.00 | 35 | 1010.6 |
| 20260503182034 | 58 | 221 | 3.5 | 7.8 | 0.00 | 0.00 | 0.00 | 34 | 1010.4 |
| 20260503181557 | 56 | 252 | 2.6 | 6.1 | 0.00 | 0.00 | 0.00 | 39 | 1010.6 |
| 20260503181038 | 56 | 209 | 1.7 | 6.1 | 0.00 | 0.00 | 0.00 | 36 | 1010.6 |
| 20260503180536 | 55 | 193 | 1.7 | 6.1 | 0.00 | 0.00 | 0.00 | 36 | 1010.2 |
| 20260503180050 | 55 | 242 | 1.7 | 9.6 | 0.00 | 0.00 | 0.00 | 38 | 1010.7 |
| 20260503175533 | 54 | 84 | 2.6 | 9.6 | 0.00 | 0.00 | 0.00 | 38 | 1010.5 |
| 20260503175034 | 54 | 292 | 2.6 | 9.6 | 0.00 | 0.00 | 0.00 | 39 | 1010.7 |
| 20260503174547 | 54 | 86 | 1.7 | 7.8 | 0.00 | 0.00 | 0.00 | 40 | 1010.6 |
| 20260503174034 | 54 | 306 | 1.7 | 8.7 | 0.00 | 0.00 | 0.00 | 37 | 1010.8 |
| 20260503173535 | 55 | 340 | 1.7 | 8.7 | 0.00 | 0.00 | 0.00 | 36 | 1011.0 |
| 20260503173041 | 54 | 346 | 2.6 | 7.0 | 0.00 | 0.00 | 0.00 | 38 | 1010.9 |
| 20260503172536 | 55 | 91 | 2.6 | 6.1 | 0.00 | 0.00 | 0.00 | 37 | 1011.1 |
| 20260503172034 | 56 | 259 | 1.7 | 7.0 | 0.00 | 0.00 | 0.00 | 36 | 1011.0 |
| 20260503171544 | 56 | 143 | 1.7 | 7.0 | 0.00 | 0.00 | 0.00 | 37 | 1011.2 |
| 20260503171034 | 54 | 151 | 1.7 | 7.0 | 0.00 | 0.00 | 0.00 | 42 | 1011.0 |
| 20260503170534 | 54 | 198 | 1.7 | 7.0 | 0.00 | 0.00 | 0.00 | 38 | 1011.1 |